createdAt,value
2019-04-01T00:01:53.074Z,42.20
2019-04-01T00:04:21.921Z,47.67
2019-04-01T00:06:50.774Z,49.95
2019-04-01T00:09:19.608Z,41.83
2019-04-01T00:11:48.452Z,47.90
2019-04-01T00:14:17.282Z,47.23
2019-04-01T00:16:46.140Z,42.93
2019-04-01T00:19:14.907Z,47.53
2019-04-01T00:21:44.691Z,44.95
2019-04-01T00:24:13.876Z,51.08
2019-04-01T00:26:42.761Z,48.70
2019-04-01T00:29:11.625Z,48.25
2019-04-01T00:31:41.804Z,45.28
2019-04-01T00:34:10.663Z,46.68
2019-04-01T00:36:39.475Z,50.38
2019-04-01T00:39:08.757Z,46.08
2019-04-01T00:41:39.148Z,45.73
2019-04-01T00:44:12.699Z,48.15
2019-04-01T00:46:41.946Z,48.85
2019-04-01T00:49:10.829Z,44.20
2019-04-01T00:51:39.648Z,46.30
2019-04-01T00:54:08.461Z,45.63
2019-04-01T00:56:37.294Z,43.38
2019-04-01T00:59:06.170Z,44.03
2019-04-01T01:01:35.030Z,41.90
2019-04-01T01:04:03.853Z,46.85
2019-04-01T01:06:32.738Z,47.62
2019-04-01T01:09:01.575Z,40.00
2019-04-01T01:11:30.430Z,45.50
2019-04-01T01:13:59.271Z,41.10
2019-04-01T01:16:28.128Z,47.88
2019-04-01T01:18:56.903Z,42.50
2019-04-01T01:21:25.878Z,43.60
2019-04-01T01:23:54.746Z,41.73
2019-04-01T01:26:23.574Z,41.15
2019-04-01T01:28:52.429Z,40.55
2019-04-01T01:31:21.258Z,43.15
2019-04-01T01:33:50.120Z,46.58
2019-04-01T01:36:18.937Z,42.00
2019-04-01T01:38:47.801Z,44.90
2019-04-01T01:41:16.626Z,42.38
2019-04-01T01:43:45.473Z,41.65
2019-04-01T01:46:14.312Z,47.35
2019-04-01T01:48:43.174Z,45.10
2019-04-01T01:51:12.014Z,44.60
2019-04-01T01:53:41.805Z,49.27
2019-04-01T01:56:10.900Z,49.45
2019-04-01T01:58:39.733Z,47.13
2019-04-01T02:01:08.598Z,41.45
2019-04-01T02:03:37.426Z,44.40
2019-04-01T02:06:06.307Z,44.53
2019-04-01T02:08:35.134Z,41.85
2019-04-01T02:11:03.971Z,39.58
2019-04-01T02:13:32.825Z,40.10
2019-04-01T02:16:01.658Z,42.48
2019-04-01T02:18:30.529Z,40.23
2019-04-01T02:20:59.340Z,45.95
2019-04-01T02:23:28.196Z,41.37
2019-04-01T02:25:57.027Z,41.40
2019-04-01T02:28:25.879Z,44.40
2019-04-01T02:30:54.714Z,40.20
2019-04-01T02:33:23.540Z,41.05
2019-04-01T02:35:52.395Z,48.23
2019-04-01T02:38:21.215Z,43.83
2019-04-01T02:40:50.078Z,39.38
2019-04-01T02:43:19.009Z,42.30
2019-04-01T02:45:47.833Z,44.80
2019-04-01T02:48:16.799Z,43.00
2019-04-01T02:50:45.645Z,42.50
2019-04-01T02:53:14.511Z,43.28
2019-04-01T02:55:43.325Z,40.78
2019-04-01T02:58:12.188Z,42.27
2019-04-01T03:00:41.016Z,38.83
2019-04-01T03:03:09.904Z,36.25
2019-04-01T03:05:38.758Z,38.98
2019-04-01T03:08:07.604Z,39.88
2019-04-01T03:10:36.445Z,36.77
2019-04-01T03:13:05.283Z,38.75
2019-04-01T03:15:34.154Z,42.10
2019-04-01T03:18:02.985Z,37.85
2019-04-01T03:20:31.823Z,37.78
2019-04-01T03:23:00.637Z,44.23
2019-04-01T03:25:30.307Z,36.10
2019-04-01T03:27:59.143Z,35.52
2019-04-01T03:30:28.025Z,37.53
2019-04-01T03:32:56.875Z,35.73
2019-04-01T03:35:25.821Z,38.83
2019-04-01T03:37:54.679Z,42.75
2019-04-01T03:40:23.489Z,37.53
2019-04-01T03:42:52.357Z,40.25
2019-04-01T03:45:21.167Z,35.85
2019-04-01T03:47:50.058Z,39.58
2019-04-01T03:50:18.877Z,39.03
2019-04-01T03:52:47.738Z,39.15
2019-04-01T03:55:16.578Z,42.90
2019-04-01T03:57:45.420Z,44.53
2019-04-01T04:00:14.761Z,38.58
2019-04-01T04:02:43.627Z,40.65
2019-04-01T04:05:12.527Z,34.90
2019-04-01T04:07:41.411Z,35.88
2019-04-01T04:10:10.654Z,37.45
2019-04-01T04:12:39.504Z,36.48
2019-04-01T04:15:08.440Z,35.45
2019-04-01T04:17:37.257Z,34.18
2019-04-01T04:20:06.358Z,32.40
2019-04-01T04:22:35.127Z,33.10
2019-04-01T04:25:05.083Z,29.92
2019-04-01T04:27:33.934Z,30.90
2019-04-01T04:30:02.796Z,31.85
2019-04-01T04:32:31.632Z,32.03
2019-04-01T04:35:00.516Z,26.48
2019-04-01T04:37:29.324Z,32.58
2019-04-01T04:39:58.208Z,30.82
2019-04-01T04:42:27.073Z,34.20
2019-04-01T04:44:56.311Z,36.68
2019-04-01T04:47:25.185Z,36.98
2019-04-01T04:49:53.998Z,35.10
2019-04-01T04:52:22.864Z,34.33
2019-04-01T04:54:51.676Z,31.35
2019-04-01T04:57:20.650Z,34.05
2019-04-01T04:59:49.470Z,29.95
2019-04-01T05:02:18.343Z,28.90
2019-04-01T05:04:47.205Z,30.37
2019-04-01T05:07:31.382Z,32.70
2019-04-01T05:10:03.950Z,32.70
2019-04-01T05:12:47.233Z,32.70
2019-04-01T05:15:16.755Z,27.52
2019-04-01T05:17:45.624Z,33.35
2019-04-01T05:20:16.507Z,28.38
2019-04-01T05:22:45.904Z,36.48
2019-04-01T05:25:14.759Z,27.58
2019-04-01T05:27:43.572Z,26.62
2019-04-01T05:30:12.853Z,32.30
2019-04-01T05:32:43.188Z,31.68
2019-04-01T05:35:12.043Z,30.60
2019-04-01T05:37:41.466Z,34.15
2019-04-01T05:40:10.456Z,32.58
2019-04-01T05:42:39.274Z,32.17
2019-04-01T05:45:08.623Z,26.27
2019-04-01T05:47:39.039Z,29.85
2019-04-01T05:50:08.908Z,34.33
2019-04-01T05:52:38.343Z,32.25
2019-04-01T05:55:08.980Z,30.65
2019-04-01T05:57:37.670Z,29.30
2019-04-01T06:00:08.163Z,33.33
2019-04-01T06:02:37.040Z,42.17
2019-04-01T06:05:07.376Z,35.30
2019-04-01T06:07:36.564Z,35.55
2019-04-01T06:10:07.245Z,30.35
2019-04-01T06:12:36.467Z,32.70
2019-04-01T06:15:08.445Z,31.70
2019-04-01T06:17:37.287Z,31.60
2019-04-01T06:20:08.220Z,32.60
2019-04-01T06:22:37.045Z,30.60
2019-04-01T06:25:07.207Z,28.32
2019-04-01T06:27:36.034Z,34.00
2019-04-01T06:30:06.892Z,35.50
2019-04-01T06:32:35.722Z,28.65
2019-04-01T06:35:08.812Z,58.48
2019-04-01T06:37:37.656Z,36.05
2019-04-01T06:40:07.320Z,33.23
2019-04-01T06:42:36.283Z,44.20
2019-04-01T06:45:06.914Z,36.33
2019-04-01T06:47:35.707Z,34.08
2019-04-01T06:50:06.146Z,34.65
2019-04-01T06:52:35.125Z,43.00
2019-04-01T06:55:04.455Z,51.33
2019-04-01T06:57:33.329Z,43.55
2019-04-01T07:00:02.166Z,38.40
2019-04-01T07:02:31.017Z,51.05
2019-04-01T07:04:59.842Z,43.92
2019-04-01T07:07:28.642Z,38.02
2019-04-01T07:09:57.480Z,40.65
2019-04-01T07:12:26.348Z,42.17
2019-04-01T07:14:55.212Z,40.78
2019-04-01T07:17:24.023Z,35.20
2019-04-01T07:19:52.881Z,35.70
2019-04-01T07:22:21.711Z,32.55
2019-04-01T07:24:52.024Z,31.50
2019-04-01T07:27:21.545Z,30.27
2019-04-01T07:29:50.520Z,31.85
2019-04-01T07:32:19.410Z,34.75
2019-04-01T07:34:48.279Z,30.10
2019-04-01T07:37:17.106Z,27.90
2019-04-01T07:39:46.090Z,33.67
2019-04-01T07:42:14.983Z,26.37
2019-04-01T07:44:44.550Z,21.68
2019-04-01T07:47:13.428Z,20.17
2019-04-01T07:49:42.255Z,19.42
2019-04-01T07:52:11.426Z,16.55
2019-04-01T07:54:40.253Z,16.82
2019-04-01T07:57:09.113Z,21.35
2019-04-01T07:59:38.055Z,12.82
2019-04-01T08:02:06.906Z,13.10
2019-04-01T08:04:35.723Z,13.20
2019-04-01T08:07:04.572Z,12.73
2019-04-01T08:09:34.420Z,13.83
2019-04-01T08:12:03.590Z,14.55
2019-04-01T08:14:32.412Z,14.53
2019-04-01T08:17:01.588Z,15.20
2019-04-01T08:19:30.524Z,17.05
2019-04-01T08:21:59.473Z,16.73
2019-04-01T08:24:28.297Z,15.18
2019-04-01T08:26:57.173Z,15.68
2019-04-01T08:29:30.417Z,15.00
2019-04-01T08:31:56.485Z,15.00
2019-04-01T08:34:25.365Z,14.40
2019-04-01T08:36:54.174Z,13.30
2019-04-01T08:39:23.029Z,10.28
2019-04-01T08:41:51.868Z,16.93
2019-04-01T08:44:20.721Z,15.30
2019-04-01T08:46:49.536Z,11.88
2019-04-01T08:49:18.394Z,14.80
2019-04-01T08:51:47.140Z,12.75
2019-04-01T08:54:16.013Z,12.47
2019-04-01T08:56:44.820Z,14.00
2019-04-01T08:59:13.965Z,14.65
2019-04-01T09:01:42.798Z,14.13
2019-04-01T09:04:11.681Z,14.83
2019-04-01T09:06:40.526Z,15.43
2019-04-01T09:09:09.368Z,15.20
2019-04-01T09:11:39.113Z,14.03
2019-04-01T09:14:07.947Z,17.90
2019-04-01T09:16:38.020Z,15.05
2019-04-01T09:19:06.841Z,14.25
2019-04-01T09:21:35.701Z,11.33
2019-04-01T09:24:04.621Z,16.10
2019-04-01T09:26:33.479Z,13.38
2019-04-01T09:29:02.325Z,19.10
2019-04-01T09:31:31.166Z,16.20
2019-04-01T09:34:00.037Z,15.53
2019-04-01T09:36:28.872Z,17.90
2019-04-01T09:38:57.737Z,21.57
2019-04-01T09:41:26.567Z,14.55
2019-04-01T09:43:55.422Z,17.60
2019-04-01T09:46:24.241Z,15.78
2019-04-01T09:48:53.013Z,14.28
2019-04-01T09:51:21.840Z,18.60
2019-04-01T09:53:50.773Z,15.85
2019-04-01T09:56:19.664Z,16.30
2019-04-01T09:58:48.484Z,15.18
2019-04-01T10:01:17.346Z,15.10
2019-04-01T10:03:47.309Z,14.65
2019-04-01T10:06:16.138Z,17.10
2019-04-01T10:08:44.894Z,15.85
2019-04-01T10:11:13.758Z,14.13
2019-04-01T10:13:42.577Z,17.82
2019-04-01T10:16:11.521Z,14.65
2019-04-01T10:18:40.364Z,18.45
2019-04-01T10:21:09.220Z,16.67
2019-04-01T10:23:38.105Z,13.30
2019-04-01T10:26:06.996Z,17.35
2019-04-01T10:28:35.918Z,19.48
2019-04-01T10:31:04.902Z,16.12
2019-04-01T10:33:33.818Z,16.70
2019-04-01T10:36:02.693Z,19.52
2019-04-01T10:38:31.618Z,15.68
2019-04-01T10:41:00.491Z,19.85
2019-04-01T10:43:29.412Z,19.27
2019-04-01T10:45:58.304Z,16.97
2019-04-01T10:48:27.216Z,16.97
2019-04-01T10:50:56.260Z,18.87
2019-04-01T10:53:25.218Z,16.65
2019-04-01T10:55:54.155Z,16.65
2019-04-01T10:58:23.101Z,17.10
2019-04-01T11:00:52.062Z,17.87
2019-04-01T11:03:21.098Z,17.98
2019-04-01T11:05:50.073Z,20.88
2019-04-01T11:08:19.078Z,21.07
2019-04-01T11:10:48.095Z,84.80
2019-04-01T11:13:16.914Z,18.57
2019-04-01T11:15:45.829Z,27.02
2019-04-01T11:18:14.710Z,86.82
2019-04-01T11:20:43.616Z,50.03
2019-04-01T11:23:12.495Z,18.48
2019-04-01T11:25:41.423Z,21.15
2019-04-01T11:28:10.291Z,21.23
2019-04-01T11:30:39.252Z,16.45
2019-04-01T11:33:08.202Z,16.30
2019-04-01T11:35:37.567Z,15.38
2019-04-01T11:38:06.568Z,13.22
2019-04-01T11:40:38.636Z,15.80
2019-04-01T11:43:05.983Z,18.82
2019-04-01T11:45:34.983Z,14.68
2019-04-01T11:48:04.021Z,17.57
2019-04-01T11:50:32.950Z,18.62
2019-04-01T11:53:01.897Z,21.90
2019-04-01T11:55:30.759Z,18.07
2019-04-01T11:57:59.667Z,18.48
2019-04-01T12:00:28.560Z,18.70
2019-04-01T12:02:57.496Z,20.02
2019-04-01T12:05:26.402Z,19.55
2019-04-01T12:07:55.276Z,20.12
2019-04-01T12:10:24.201Z,17.95
2019-04-01T12:12:53.094Z,21.05
2019-04-01T12:15:21.995Z,16.00
2019-04-01T12:17:50.875Z,14.90
2019-04-01T12:20:19.785Z,17.62
2019-04-01T12:22:48.726Z,19.40
2019-04-01T12:25:17.646Z,17.67
2019-04-01T12:27:46.523Z,14.90
2019-04-01T12:30:16.341Z,14.47
2019-04-01T12:32:45.254Z,13.88
2019-04-01T12:35:14.171Z,14.35
2019-04-01T12:37:43.077Z,14.60
2019-04-01T12:40:12.268Z,14.07
2019-04-01T12:42:41.177Z,12.88
2019-04-01T12:45:10.654Z,16.67
2019-04-01T12:47:42.987Z,15.50
2019-04-01T12:50:12.015Z,13.40
2019-04-01T12:52:40.942Z,14.63
2019-04-01T12:55:09.922Z,16.23
2019-04-01T12:57:38.837Z,15.70
2019-04-01T13:00:10.189Z,16.95
2019-04-01T13:02:39.116Z,18.15
2019-04-01T13:05:08.083Z,13.00
2019-04-01T13:07:36.874Z,13.98
2019-04-01T13:10:07.590Z,14.58
2019-04-01T13:12:36.491Z,13.03
2019-04-01T13:15:06.113Z,15.83
2019-04-01T13:17:35.077Z,15.63
2019-04-01T13:20:05.115Z,18.85
2019-04-01T13:22:34.001Z,15.32
2019-04-01T13:25:05.669Z,14.93
2019-04-01T13:27:33.450Z,13.68
2019-04-01T13:30:02.361Z,13.35
2019-04-01T13:32:31.236Z,13.62
2019-04-01T13:35:00.149Z,14.18
2019-04-01T13:37:29.029Z,13.72
2019-04-01T13:39:57.869Z,20.37
2019-04-01T13:42:26.780Z,14.45
2019-04-01T13:44:55.679Z,16.42
2019-04-01T13:47:24.954Z,14.73
2019-04-01T13:49:53.959Z,15.48
2019-04-01T13:52:23.124Z,16.07
2019-04-01T13:54:52.070Z,20.32
2019-04-01T13:57:21.277Z,18.87
2019-04-01T13:59:51.775Z,17.27
2019-04-01T14:02:20.994Z,16.60
2019-04-01T14:04:50.212Z,17.02
2019-04-01T14:07:19.335Z,18.45
2019-04-01T14:09:48.238Z,18.82
2019-04-01T14:12:17.474Z,17.62
2019-04-01T14:14:46.327Z,16.00
2019-04-01T14:17:15.232Z,15.72
2019-04-01T14:19:44.141Z,19.50
2019-04-01T14:22:13.017Z,16.87
2019-04-01T14:24:42.685Z,22.98
2019-04-01T14:27:12.819Z,16.35
2019-04-01T14:29:41.715Z,17.57
2019-04-01T14:32:10.608Z,21.57
2019-04-01T14:34:39.511Z,16.17
2019-04-01T14:37:09.825Z,17.42
2019-04-01T14:39:38.930Z,14.83
2019-04-01T14:42:08.703Z,12.85
2019-04-01T14:44:42.146Z,16.15
2019-04-01T14:47:11.083Z,13.53
2019-04-01T14:49:41.688Z,20.82
2019-04-01T14:52:11.332Z,14.45
2019-04-01T14:54:41.102Z,14.47
2019-04-01T14:57:10.006Z,16.00
2019-04-01T14:59:38.900Z,17.25
2019-04-01T15:02:07.827Z,19.15
2019-04-01T15:04:36.717Z,16.07
2019-04-01T15:07:05.631Z,17.67
2019-04-01T15:09:34.536Z,15.95
2019-04-01T15:12:03.428Z,14.93
2019-04-01T15:14:32.337Z,20.27
2019-04-01T15:17:01.226Z,21.30
2019-04-01T15:19:30.141Z,15.85
2019-04-01T15:21:59.020Z,21.57
2019-04-01T15:24:27.979Z,16.95
2019-04-01T15:26:57.415Z,22.55
2019-04-01T15:29:26.342Z,17.52
2019-04-01T15:31:55.239Z,16.02
2019-04-01T15:34:27.660Z,18.37
2019-04-01T15:36:59.754Z,20.50
2019-04-01T15:39:29.894Z,19.52
2019-04-01T15:42:00.161Z,20.68
2019-04-01T15:44:29.890Z,22.15
2019-04-01T15:46:58.778Z,20.08
2019-04-01T15:49:27.647Z,26.80
2019-04-01T15:51:56.584Z,22.37
2019-04-01T15:54:25.470Z,22.00
2019-04-01T15:56:54.389Z,19.30
2019-04-01T15:59:23.281Z,31.68
2019-04-01T16:01:52.194Z,20.68
2019-04-01T16:04:21.080Z,22.40
2019-04-01T16:06:50.004Z,22.93
2019-04-01T16:09:18.866Z,27.73
2019-04-01T16:11:47.785Z,26.60
2019-04-01T16:14:19.232Z,24.10
2019-04-01T16:16:47.240Z,21.65
2019-04-01T16:19:16.132Z,23.40
2019-04-01T16:21:45.032Z,20.55
2019-04-01T16:24:13.908Z,18.32
2019-04-01T16:26:42.822Z,20.37
2019-04-01T16:29:11.723Z,24.20
2019-04-01T16:31:40.613Z,25.32
2019-04-01T16:34:09.502Z,21.93
2019-04-01T16:36:38.406Z,20.10
2019-04-01T16:39:08.126Z,67.65
2019-04-01T16:41:37.605Z,31.07
2019-04-01T16:44:06.517Z,49.60
2019-04-01T16:46:35.410Z,28.80
2019-04-01T16:49:04.321Z,25.00
2019-04-01T16:51:33.198Z,36.63
2019-04-01T16:54:02.137Z,25.80
2019-04-01T16:56:31.016Z,26.42
2019-04-01T16:59:00.872Z,29.32
2019-04-01T17:01:29.767Z,33.45
2019-04-01T17:03:58.675Z,32.53
2019-04-01T17:06:27.566Z,28.85
2019-04-01T17:08:56.505Z,21.02
2019-04-01T17:11:25.427Z,21.37
2019-04-01T17:13:55.544Z,28.45
2019-04-01T17:16:24.740Z,53.25
2019-04-01T17:18:53.613Z,49.73
2019-04-01T17:21:22.555Z,33.30
2019-04-01T17:23:51.427Z,17.32
2019-04-01T17:26:20.351Z,18.85
2019-04-01T17:28:49.239Z,30.82
2019-04-01T17:31:18.162Z,20.08
2019-04-01T17:33:47.751Z,26.48
2019-04-01T17:36:16.991Z,27.25
2019-04-01T17:38:48.128Z,24.20
2019-04-01T17:41:16.511Z,20.27
2019-04-01T17:43:45.669Z,18.70
2019-04-01T17:46:14.907Z,20.20
2019-04-01T17:48:43.791Z,29.25
2019-04-01T17:51:12.712Z,24.35
2019-04-01T17:53:41.614Z,21.30
2019-04-01T17:56:10.541Z,19.70
2019-04-01T17:58:39.472Z,17.55
2019-04-01T18:01:09.414Z,22.52
2019-04-01T18:03:38.927Z,24.55
2019-04-01T18:06:07.819Z,20.32
2019-04-01T18:08:36.728Z,20.90
2019-04-01T18:11:05.600Z,22.07
2019-04-01T18:13:34.536Z,18.98
2019-04-01T18:16:03.402Z,20.80
2019-04-01T18:18:34.105Z,20.97
2019-04-01T18:21:03.480Z,21.97
2019-04-01T18:23:32.771Z,21.27
2019-04-01T18:26:01.668Z,23.77
2019-04-01T18:28:30.581Z,20.65
2019-04-01T18:30:59.385Z,29.32
2019-04-01T18:33:30.044Z,28.98
2019-04-01T18:35:58.844Z,27.50
2019-04-01T18:38:27.734Z,24.27
2019-04-01T18:40:56.644Z,23.05
2019-04-01T18:43:25.531Z,28.12
2019-04-01T18:45:54.449Z,24.60
2019-04-01T18:48:23.335Z,23.85
2019-04-01T18:50:52.262Z,27.90
2019-04-01T18:53:21.135Z,28.90
2019-04-01T18:55:52.626Z,28.40
2019-04-01T18:58:20.625Z,28.17
2019-04-01T19:00:49.530Z,29.67
2019-04-01T19:03:18.443Z,39.30
2019-04-01T19:05:47.319Z,34.23
2019-04-01T19:08:16.231Z,29.12
2019-04-01T19:10:45.121Z,34.15
2019-04-01T19:13:14.037Z,33.05
2019-04-01T19:15:43.774Z,29.45
2019-04-01T19:18:13.049Z,28.52
2019-04-01T19:20:55.358Z,29.67
2019-04-01T19:23:12.508Z,37.10
2019-04-01T19:25:41.388Z,38.60
2019-04-01T19:28:10.225Z,31.52
2019-04-01T19:30:39.118Z,27.40
2019-04-01T19:33:08.921Z,27.82
2019-04-01T19:35:38.201Z,30.50
2019-04-01T19:38:07.516Z,25.17
2019-04-01T19:40:36.976Z,30.77
2019-04-01T19:43:05.861Z,36.42
2019-04-01T19:45:35.182Z,26.97
2019-04-01T19:48:04.062Z,30.35
2019-04-01T19:50:32.976Z,27.93
2019-04-01T19:53:02.853Z,30.32
2019-04-01T19:55:32.069Z,25.57
2019-04-01T19:58:00.947Z,27.93
2019-04-01T20:00:30.796Z,28.87
2019-04-01T20:03:00.169Z,27.52
2019-04-01T20:05:29.077Z,24.85
2019-04-01T20:07:57.969Z,25.57
2019-04-01T20:10:28.413Z,26.12
2019-04-01T20:12:57.502Z,26.60
2019-04-01T20:15:26.416Z,28.90
2019-04-01T20:17:55.304Z,24.77
2019-04-01T20:20:24.213Z,26.55
2019-04-01T20:22:53.937Z,24.80
2019-04-01T20:25:23.364Z,29.55
2019-04-01T20:27:52.261Z,23.15
2019-04-01T20:30:21.962Z,24.55
2019-04-01T20:32:50.872Z,26.95
2019-04-01T20:35:23.590Z,26.70
2019-04-01T20:37:50.321Z,21.57
2019-04-01T20:40:19.213Z,25.32
2019-04-01T20:42:48.113Z,24.65
2019-04-01T20:45:16.996Z,24.98
2019-04-01T20:47:46.309Z,22.55
2019-04-01T20:50:16.097Z,24.87
2019-04-01T20:52:45.030Z,25.27
2019-04-01T20:55:15.114Z,21.68
2019-04-01T20:57:44.006Z,22.30
2019-04-01T21:00:13.231Z,24.80
2019-04-01T21:02:42.105Z,25.43
2019-04-01T21:05:11.084Z,21.82
2019-04-01T21:07:39.953Z,25.20
2019-04-01T21:10:09.450Z,22.30
2019-04-01T21:12:38.325Z,25.45
2019-04-01T21:15:08.440Z,23.27
2019-04-01T21:17:37.336Z,24.92
2019-04-01T21:20:07.836Z,20.57
2019-04-01T21:22:37.256Z,24.75
2019-04-01T21:25:07.456Z,23.52
2019-04-01T21:27:36.327Z,26.97
2019-04-01T21:30:12.282Z,22.65
2019-04-01T21:32:41.167Z,36.42
2019-04-01T21:35:10.176Z,22.35
2019-04-01T21:37:39.070Z,23.47
2019-04-01T21:40:08.576Z,20.75
2019-04-01T21:42:37.469Z,22.13
2019-04-01T21:45:08.097Z,29.48
2019-04-01T21:47:36.993Z,24.15
2019-04-01T21:50:07.319Z,24.07
2019-04-01T21:52:36.298Z,25.60
2019-04-01T21:55:08.148Z,24.67
2019-04-01T21:57:37.046Z,26.62
2019-04-01T22:00:17.925Z,27.75
2019-04-01T22:02:45.948Z,25.88
2019-04-01T22:05:14.928Z,30.77
2019-04-01T22:07:43.835Z,25.30
2019-04-01T22:10:13.337Z,25.55
2019-04-01T22:12:42.243Z,26.25
2019-04-01T22:15:11.339Z,31.73
2019-04-01T22:17:40.261Z,29.63
2019-04-01T22:20:10.359Z,35.50
2019-04-01T22:22:39.396Z,26.90
2019-04-01T22:25:08.275Z,25.43
2019-04-01T22:27:37.199Z,24.50
2019-04-01T22:30:09.299Z,27.32
2019-04-01T22:32:38.225Z,25.35
2019-04-01T22:35:08.537Z,23.65
2019-04-01T22:37:38.083Z,28.70
2019-04-01T22:40:07.645Z,27.87
2019-04-01T22:42:36.581Z,27.13
2019-04-01T22:45:07.602Z,26.40
2019-04-01T22:47:36.484Z,29.00
2019-04-01T22:50:10.117Z,27.80
2019-04-01T22:52:41.884Z,29.07
2019-04-01T22:55:09.824Z,28.90
2019-04-01T22:57:38.714Z,32.60
2019-04-01T23:00:07.735Z,26.50
2019-04-01T23:02:36.639Z,25.62
2019-04-01T23:05:08.316Z,24.25
2019-04-01T23:07:37.107Z,27.00
2019-04-01T23:10:09.494Z,26.82
2019-04-01T23:12:38.393Z,27.77
2019-04-01T23:15:09.020Z,29.63
2019-04-01T23:17:38.700Z,29.77
2019-04-01T23:20:08.039Z,29.20
2019-04-01T23:22:36.949Z,31.62
2019-04-01T23:25:07.074Z,28.27
2019-04-01T23:27:35.996Z,28.92
2019-04-01T23:30:09.646Z,24.87
2019-04-01T23:32:41.504Z,29.20
2019-04-01T23:35:09.108Z,25.48
2019-04-01T23:37:38.434Z,29.60
2019-04-01T23:40:08.738Z,28.83
2019-04-01T23:42:38.074Z,25.40
2019-04-01T23:45:08.562Z,22.95
2019-04-01T23:47:37.484Z,26.48
2019-04-01T23:50:09.074Z,25.37
2019-04-01T23:52:38.726Z,27.00
2019-04-01T23:55:07.661Z,23.60
2019-04-01T23:57:36.556Z,28.02
